createdAt,value
2022-08-20T00:01:58.661Z,51.42
2022-08-20T00:04:28.139Z,51.55
2022-08-20T00:06:56.097Z,51.75
2022-08-20T00:09:24.094Z,51.64
2022-08-20T00:11:52.096Z,52.36
2022-08-20T00:14:20.490Z,52.72
2022-08-20T00:16:48.865Z,51.63
2022-08-20T00:19:18.393Z,51.24
2022-08-20T00:21:47.787Z,51.43
2022-08-20T00:24:17.775Z,50.84
2022-08-20T00:26:52.435Z,50.64
2022-08-20T00:29:22.351Z,51.30
2022-08-20T00:31:51.197Z,51.38
2022-08-20T00:34:19.696Z,51.45
2022-08-20T00:36:49.215Z,52.27
2022-08-20T00:39:17.205Z,52.06
2022-08-20T00:41:45.925Z,52.51
2022-08-20T00:44:16.843Z,52.33
2022-08-20T00:46:46.168Z,52.82
2022-08-20T00:49:19.219Z,52.85
2022-08-20T00:51:51.810Z,53.22
2022-08-20T00:54:23.639Z,53.15
2022-08-20T00:57:06.021Z,52.88
2022-08-20T00:59:37.324Z,53.79
2022-08-20T01:02:08.665Z,53.78
2022-08-20T01:04:37.658Z,53.57
2022-08-20T01:07:08.362Z,53.85
2022-08-20T01:09:58.281Z,53.86
2022-08-20T01:12:26.670Z,54.19
2022-08-20T01:14:55.290Z,54.30
2022-08-20T01:17:26.945Z,55.29
2022-08-20T01:19:59.596Z,55.89
2022-08-20T01:22:57.190Z,55.62
2022-08-20T01:25:31.882Z,55.99
2022-08-20T01:28:01.842Z,55.84
2022-08-20T01:30:30.754Z,56.07
2022-08-20T01:32:58.755Z,56.32
2022-08-20T01:35:27.560Z,56.28
2022-08-20T01:37:55.816Z,56.98
2022-08-20T01:40:37.778Z,57.26
2022-08-20T01:43:09.676Z,57.96
2022-08-20T01:45:40.052Z,58.51
2022-08-20T01:48:09.573Z,58.88
2022-08-20T01:50:43.074Z,58.70
2022-08-20T01:53:21.984Z,58.81
2022-08-20T01:55:50.012Z,59.45
2022-08-20T01:58:19.417Z,59.31
2022-08-20T02:00:47.707Z,58.82
2022-08-20T02:03:15.768Z,59.30
2022-08-20T02:05:43.822Z,59.03
2022-08-20T02:08:11.911Z,59.44
2022-08-20T02:10:40.558Z,59.12
2022-08-20T02:13:10.202Z,59.03
2022-08-20T02:15:42.969Z,59.40
2022-08-20T02:18:15.550Z,60.16
2022-08-20T02:20:46.094Z,60.42
2022-08-20T02:23:15.682Z,60.80
2022-08-20T02:25:47.443Z,60.10
2022-08-20T02:28:19.444Z,60.54
2022-08-20T02:30:51.441Z,60.69
2022-08-20T02:33:24.140Z,60.92
2022-08-20T02:35:56.971Z,60.93
2022-08-20T02:38:26.116Z,60.97
2022-08-20T02:40:54.331Z,60.70
2022-08-20T02:43:22.468Z,60.44
2022-08-20T02:45:51.940Z,60.26
2022-08-20T02:48:23.087Z,60.17
2022-08-20T02:50:54.488Z,60.04
2022-08-20T02:53:22.847Z,60.67
2022-08-20T02:55:51.662Z,60.80
2022-08-20T02:58:20.849Z,61.22
2022-08-20T03:00:49.082Z,60.18
2022-08-20T03:03:22.467Z,58.90
2022-08-20T03:05:52.562Z,58.79
2022-08-20T03:08:21.372Z,57.21
2022-08-20T03:10:50.677Z,55.92
2022-08-20T03:13:20.122Z,55.87
2022-08-20T03:15:50.175Z,55.34
2022-08-20T03:18:21.203Z,55.32
2022-08-20T03:20:51.398Z,55.35
2022-08-20T03:23:22.408Z,55.33
2022-08-20T03:25:50.874Z,55.40
2022-08-20T03:28:19.633Z,56.31
2022-08-20T03:30:48.901Z,56.12
2022-08-20T03:33:17.354Z,56.05
2022-08-20T03:35:47.494Z,56.32
2022-08-20T03:38:17.409Z,56.22
2022-08-20T03:40:49.622Z,56.08
2022-08-20T03:43:18.702Z,56.07
2022-08-20T03:45:48.021Z,56.31
2022-08-20T03:48:19.377Z,57.11
2022-08-20T03:50:50.362Z,57.12
2022-08-20T03:53:19.661Z,57.41
2022-08-20T03:55:54.001Z,56.94
2022-08-20T03:58:30.038Z,56.71
2022-08-20T04:01:03.156Z,56.40
2022-08-20T04:03:31.279Z,56.57
2022-08-20T04:06:00.729Z,56.38
2022-08-20T04:08:30.607Z,56.64
2022-08-20T04:10:59.951Z,57.17
2022-08-20T04:13:29.759Z,56.56
2022-08-20T04:15:58.575Z,57.94
2022-08-20T04:18:27.212Z,59.93
2022-08-20T04:20:55.761Z,61.59
2022-08-20T04:23:25.185Z,63.06
2022-08-20T04:25:56.599Z,64.28
2022-08-20T04:28:26.995Z,64.65
2022-08-20T04:30:56.003Z,65.15
2022-08-20T04:33:34.218Z,66.26
2022-08-20T04:36:06.335Z,66.66
2022-08-20T04:38:48.257Z,67.13
2022-08-20T04:41:21.067Z,66.45
2022-08-20T04:43:52.393Z,65.77
2022-08-20T04:46:20.534Z,65.79
2022-08-20T04:48:50.250Z,65.33
2022-08-20T04:51:19.381Z,64.37
2022-08-20T04:53:54.396Z,63.48
2022-08-20T04:56:26.125Z,63.44
2022-08-20T04:58:55.780Z,63.69
2022-08-20T05:01:25.090Z,63.15
2022-08-20T05:03:55.324Z,62.72
2022-08-20T05:06:24.736Z,63.02
2022-08-20T05:08:54.496Z,62.69
2022-08-20T05:11:34.881Z,62.74
2022-08-20T05:14:06.239Z,62.56
2022-08-20T05:16:39.122Z,61.98
2022-08-20T05:19:08.776Z,61.95
2022-08-20T05:21:37.277Z,61.04
2022-08-20T05:24:07.671Z,60.95
2022-08-20T05:26:36.518Z,60.73
2022-08-20T05:29:06.834Z,60.11
2022-08-20T05:31:35.815Z,59.56
2022-08-20T05:34:09.733Z,58.73
2022-08-20T05:36:40.098Z,59.11
2022-08-20T05:39:10.667Z,58.67
2022-08-20T05:41:39.684Z,58.92
2022-08-20T05:44:13.025Z,58.92
2022-08-20T05:46:41.861Z,58.34
2022-08-20T05:49:10.106Z,57.71
2022-08-20T05:51:38.338Z,57.52
2022-08-20T05:54:07.096Z,57.17
2022-08-20T05:56:37.644Z,56.56
2022-08-20T05:59:07.569Z,56.31
2022-08-20T06:01:38.114Z,55.60
2022-08-20T06:04:24.019Z,55.28
2022-08-20T06:06:53.152Z,54.90
2022-08-20T06:09:30.653Z,54.55
2022-08-20T06:12:02.544Z,54.67
2022-08-20T06:14:31.573Z,54.69
2022-08-20T06:17:05.724Z,54.50
2022-08-20T06:19:34.850Z,55.19
2022-08-20T06:22:17.286Z,54.61
2022-08-20T06:24:48.191Z,54.25
2022-08-20T06:27:18.179Z,54.99
2022-08-20T06:29:46.196Z,55.34
2022-08-20T06:32:14.431Z,54.78
2022-08-20T06:34:50.004Z,54.58
2022-08-20T06:37:21.938Z,54.34
2022-08-20T06:39:50.573Z,55.28
2022-08-20T06:42:21.327Z,55.80
2022-08-20T06:44:50.970Z,55.53
2022-08-20T06:47:19.791Z,55.22
2022-08-20T06:49:48.780Z,55.79
2022-08-20T06:52:17.220Z,55.11
2022-08-20T06:54:45.372Z,55.91
2022-08-20T06:57:14.085Z,55.11
2022-08-20T06:59:43.455Z,54.43
2022-08-20T07:02:13.981Z,54.28
2022-08-20T07:04:42.464Z,54.42
2022-08-20T07:07:17.571Z,54.73
2022-08-20T07:09:46.428Z,54.57
2022-08-20T07:12:14.728Z,55.02
2022-08-20T07:14:44.444Z,55.04
2022-08-20T07:17:12.900Z,54.86
2022-08-20T07:19:40.960Z,54.81
2022-08-20T07:22:09.168Z,54.16
2022-08-20T07:24:41.109Z,53.84
2022-08-20T07:27:10.306Z,53.63
2022-08-20T07:29:56.140Z,54.05
2022-08-20T07:32:39.579Z,53.16
2022-08-20T07:35:11.738Z,52.74
2022-08-20T07:37:42.082Z,52.23
2022-08-20T07:40:14.487Z,52.74
2022-08-20T07:42:42.996Z,51.91
2022-08-20T07:45:14.507Z,51.46
2022-08-20T07:47:44.277Z,51.36
2022-08-20T07:50:16.342Z,50.79
2022-08-20T07:52:45.699Z,51.73
2022-08-20T07:55:17.024Z,51.69
2022-08-20T07:57:46.921Z,51.48
2022-08-20T08:00:16.239Z,51.06
2022-08-20T08:02:45.669Z,50.69
2022-08-20T08:05:13.682Z,50.19
2022-08-20T08:07:43.113Z,50.26
2022-08-20T08:10:15.472Z,50.05
2022-08-20T08:12:47.817Z,50.28
2022-08-20T08:15:29.662Z,50.54
2022-08-20T08:18:02.995Z,50.69
2022-08-20T08:20:31.271Z,50.45
2022-08-20T08:22:59.912Z,49.92
2022-08-20T08:25:27.889Z,49.52
2022-08-20T08:27:55.971Z,49.85
2022-08-20T08:30:24.042Z,48.88
2022-08-20T08:33:09.278Z,48.87
2022-08-20T08:35:41.454Z,49.55
2022-08-20T08:38:14.472Z,49.24
2022-08-20T08:40:42.986Z,48.31
2022-08-20T08:43:13.883Z,48.21
2022-08-20T08:45:48.962Z,48.32
2022-08-20T08:48:21.303Z,47.53
2022-08-20T08:50:54.851Z,47.28
2022-08-20T08:53:27.595Z,48.06
2022-08-20T08:55:55.861Z,46.81
2022-08-20T08:58:23.917Z,46.49
2022-08-20T09:00:57.517Z,46.62
2022-08-20T09:03:34.532Z,46.44
2022-08-20T09:06:04.922Z,45.59
2022-08-20T09:08:37.275Z,45.63
2022-08-20T09:11:08.342Z,46.13
2022-08-20T09:13:36.814Z,46.56
2022-08-20T09:16:05.558Z,46.22
2022-08-20T09:18:33.699Z,45.63
2022-08-20T09:21:03.209Z,45.61
2022-08-20T09:23:32.481Z,44.94
2022-08-20T09:26:00.539Z,44.67
2022-08-20T09:28:34.811Z,44.79
2022-08-20T09:31:03.662Z,43.61
2022-08-20T09:33:32.778Z,43.28
2022-08-20T09:36:00.742Z,44.46
2022-08-20T09:38:30.449Z,42.83
2022-08-20T09:40:58.543Z,42.81
2022-08-20T09:43:26.844Z,42.24
2022-08-20T09:45:56.225Z,41.63
2022-08-20T09:48:32.035Z,39.50
2022-08-20T09:51:00.515Z,37.89
2022-08-20T09:53:30.742Z,38.96
2022-08-20T09:56:00.235Z,38.86
2022-08-20T09:58:42.377Z,39.41
2022-08-20T10:01:14.999Z,39.97
2022-08-20T10:03:43.383Z,40.62
2022-08-20T10:06:14.807Z,39.82
2022-08-20T10:08:45.222Z,40.13
2022-08-20T10:11:13.714Z,40.54
2022-08-20T10:13:41.721Z,41.18
2022-08-20T10:16:09.848Z,40.62
2022-08-20T10:18:37.938Z,40.74
2022-08-20T10:21:10.961Z,40.17
2022-08-20T10:23:38.967Z,40.06
2022-08-20T10:26:08.691Z,40.58
2022-08-20T10:28:37.107Z,40.07
2022-08-20T10:31:07.963Z,39.98
2022-08-20T10:33:36.158Z,40.42
2022-08-20T10:36:08.466Z,39.88
2022-08-20T10:38:36.785Z,39.82
2022-08-20T10:41:05.001Z,39.64
2022-08-20T10:43:34.983Z,38.60
2022-08-20T10:46:03.270Z,38.04
2022-08-20T10:48:31.462Z,37.49
2022-08-20T10:50:59.621Z,38.08
2022-08-20T10:53:27.993Z,36.38
2022-08-20T10:55:56.656Z,36.09
2022-08-20T10:58:25.275Z,36.22
2022-08-20T11:00:56.124Z,37.04
2022-08-20T11:03:24.460Z,35.78
2022-08-20T11:05:52.469Z,35.25
2022-08-20T11:08:25.129Z,35.47
2022-08-20T11:11:01.874Z,34.66
2022-08-20T11:13:29.834Z,34.69
2022-08-20T11:15:59.399Z,34.78
2022-08-20T11:18:27.547Z,34.77
2022-08-20T11:20:56.349Z,33.53
2022-08-20T11:23:24.342Z,33.34
2022-08-20T11:25:52.890Z,33.46
2022-08-20T11:28:31.206Z,33.42
2022-08-20T11:31:01.765Z,33.46
2022-08-20T11:33:29.835Z,33.42
2022-08-20T11:35:57.874Z,32.50
2022-08-20T11:38:25.924Z,33.00
2022-08-20T11:40:53.875Z,32.61
2022-08-20T11:43:21.946Z,32.48
2022-08-20T11:45:52.504Z,32.94
2022-08-20T11:48:22.197Z,33.07
2022-08-20T11:50:51.966Z,32.66
2022-08-20T11:53:20.111Z,33.06
2022-08-20T11:55:49.789Z,33.00
2022-08-20T11:58:18.647Z,32.95
2022-08-20T12:00:46.692Z,32.57
2022-08-20T12:03:14.817Z,32.40
2022-08-20T12:05:46.379Z,33.27
2022-08-20T12:08:27.146Z,32.79
2022-08-20T12:10:56.245Z,32.22
2022-08-20T12:13:30.795Z,31.80
2022-08-20T12:16:12.467Z,31.41
2022-08-20T12:18:40.486Z,32.33
2022-08-20T12:21:09.881Z,32.00
2022-08-20T12:23:37.937Z,31.46
2022-08-20T12:26:06.186Z,31.77
2022-08-20T12:28:34.374Z,31.28
2022-08-20T12:31:02.667Z,31.26
2022-08-20T12:33:30.888Z,31.13
2022-08-20T12:35:58.993Z,30.85
2022-08-20T12:38:28.789Z,30.68
2022-08-20T12:40:56.846Z,30.54
2022-08-20T12:43:25.342Z,30.06
2022-08-20T12:45:53.426Z,30.49
2022-08-20T12:48:21.990Z,29.97
2022-08-20T12:50:52.715Z,30.41
2022-08-20T13:11:35.594Z,30.66
2022-08-20T13:14:03.653Z,30.71
2022-08-20T13:16:31.945Z,29.66
2022-08-20T13:18:59.944Z,29.08
2022-08-20T13:21:28.059Z,29.19
2022-08-20T13:23:58.978Z,28.69
2022-08-20T13:26:27.055Z,28.56
2022-08-20T13:28:56.932Z,28.57
2022-08-20T13:31:25.685Z,28.77
2022-08-20T13:33:53.718Z,28.75
2022-08-20T13:36:21.786Z,28.79
2022-08-20T13:38:49.817Z,28.54
2022-08-20T13:41:17.829Z,28.87
2022-08-20T13:43:45.839Z,29.16
2022-08-20T13:46:15.164Z,28.92
2022-08-20T13:48:43.136Z,28.86
2022-08-20T13:51:11.282Z,28.34
2022-08-20T13:53:39.314Z,28.87
2022-08-20T13:56:09.821Z,28.59
2022-08-20T13:58:37.882Z,28.61
2022-08-20T14:01:06.238Z,28.08
2022-08-20T14:03:35.902Z,28.86
2022-08-20T14:06:04.426Z,28.09
2022-08-20T14:08:32.391Z,28.38
2022-08-20T14:11:00.489Z,27.83
2022-08-20T14:13:29.258Z,27.65
2022-08-20T14:15:57.585Z,27.29
2022-08-20T14:18:25.976Z,27.55
2022-08-20T14:20:55.470Z,27.86
2022-08-20T14:23:23.650Z,27.71
2022-08-20T14:25:51.698Z,27.81
2022-08-20T14:28:21.667Z,27.35
2022-08-20T14:30:52.630Z,27.39
2022-08-20T14:33:21.583Z,27.40
2022-08-20T14:35:49.511Z,28.15
2022-08-20T14:38:18.852Z,28.03
2022-08-20T14:40:47.436Z,27.50
2022-08-20T14:43:15.414Z,27.59
2022-08-20T14:45:46.128Z,27.74
2022-08-20T14:48:14.984Z,27.17
2022-08-20T14:50:43.158Z,27.14
2022-08-20T14:53:11.240Z,27.19
2022-08-20T14:55:40.720Z,27.37
2022-08-20T14:58:10.305Z,27.27
2022-08-20T15:00:38.937Z,27.09
2022-08-20T15:03:07.225Z,27.84
2022-08-20T15:05:39.474Z,27.50
2022-08-20T15:08:08.385Z,27.66
2022-08-20T15:10:38.856Z,26.74
2022-08-20T15:13:08.731Z,27.50
2022-08-20T15:15:36.956Z,27.50
2022-08-20T15:18:05.104Z,27.59
2022-08-20T15:20:35.917Z,27.71
2022-08-20T15:23:05.302Z,27.77
2022-08-20T15:25:37.886Z,28.00
2022-08-20T15:28:09.952Z,27.29
2022-08-20T15:30:40.865Z,27.49
2022-08-20T15:33:09.928Z,28.11
2022-08-20T15:35:38.118Z,28.21
2022-08-20T15:38:06.428Z,28.14
2022-08-20T15:40:35.063Z,29.25
2022-08-20T15:43:05.516Z,28.87
2022-08-20T15:45:36.398Z,29.42
2022-08-20T15:48:10.916Z,28.91
2022-08-20T15:51:16.048Z,28.99
2022-08-20T15:53:52.363Z,29.12
2022-08-20T15:56:32.433Z,29.33
2022-08-20T15:59:15.039Z,29.29
2022-08-20T16:01:51.632Z,29.23
2022-08-20T16:04:45.604Z,29.30
2022-08-20T16:07:20.647Z,29.66
2022-08-20T16:10:00.486Z,29.80
2022-08-20T16:12:34.116Z,30.06
2022-08-20T16:15:08.856Z,30.57
2022-08-20T16:17:45.576Z,32.15
2022-08-20T16:20:32.925Z,34.62
2022-08-20T16:23:03.991Z,34.83
2022-08-20T16:25:39.874Z,36.36
2022-08-20T16:28:21.162Z,36.88
2022-08-20T16:30:53.094Z,37.39
2022-08-20T16:33:27.671Z,37.84
2022-08-20T16:36:02.755Z,38.81
2022-08-20T16:38:41.226Z,39.14
2022-08-20T16:41:16.081Z,39.67
2022-08-20T16:43:53.254Z,40.38
2022-08-20T16:46:25.991Z,41.21
2022-08-20T16:48:58.421Z,41.05
2022-08-20T16:51:40.807Z,41.46
2022-08-20T16:54:09.800Z,41.94
2022-08-20T16:56:40.280Z,41.98
2022-08-20T16:59:11.174Z,41.94
2022-08-20T17:01:39.581Z,41.79
2022-08-20T17:04:09.153Z,41.93
2022-08-20T17:06:39.948Z,42.00
2022-08-20T17:09:12.727Z,42.26
2022-08-20T17:11:40.847Z,43.57
2022-08-20T17:14:12.717Z,43.20
2022-08-20T17:16:44.847Z,43.57
2022-08-20T17:19:19.607Z,43.56
2022-08-20T17:21:50.248Z,44.05
2022-08-20T17:24:24.399Z,44.65
2022-08-20T17:26:59.548Z,45.04
2022-08-20T17:29:30.000Z,45.07
2022-08-20T17:32:00.522Z,45.15
2022-08-20T17:34:32.838Z,46.13
2022-08-20T17:37:06.424Z,46.31
2022-08-20T17:39:34.940Z,46.53
2022-08-20T17:42:09.332Z,46.81
2022-08-20T17:44:43.398Z,46.45
2022-08-20T17:47:16.547Z,46.89
2022-08-20T17:49:53.268Z,46.99
2022-08-20T17:52:35.384Z,47.25
2022-08-20T17:55:04.845Z,47.15
2022-08-20T17:57:39.026Z,47.15
2022-08-20T18:00:13.882Z,47.61
2022-08-20T18:02:42.335Z,47.42
2022-08-20T18:05:19.182Z,47.53
2022-08-20T18:08:10.911Z,48.23
2022-08-20T18:10:44.623Z,48.19
2022-08-20T18:13:19.243Z,47.88
2022-08-20T18:15:51.811Z,48.63
2022-08-20T18:18:29.562Z,48.87
2022-08-20T18:21:21.867Z,49.26
2022-08-20T18:23:56.544Z,49.37
2022-08-20T18:26:30.521Z,50.11
2022-08-20T18:29:03.839Z,50.41
2022-08-20T18:31:41.481Z,51.07
2022-08-20T18:34:14.986Z,51.84
2022-08-20T18:36:55.396Z,52.08
2022-08-20T18:39:27.188Z,52.48
2022-08-20T18:42:01.169Z,52.70
2022-08-20T18:44:39.912Z,52.86
2022-08-20T18:47:21.521Z,53.54
2022-08-20T18:50:02.273Z,53.45
2022-08-20T18:52:34.174Z,52.85
2022-08-20T18:55:06.025Z,53.39
2022-08-20T18:57:41.118Z,54.80
2022-08-20T19:00:13.853Z,55.62
2022-08-20T19:02:56.581Z,57.94
2022-08-20T19:05:30.783Z,58.39
2022-08-20T19:08:04.003Z,59.56
2022-08-20T19:10:48.556Z,61.83
2022-08-20T19:13:46.559Z,62.77
2022-08-20T19:16:20.840Z,62.56
2022-08-20T19:18:52.680Z,62.79
2022-08-20T19:21:26.062Z,64.52
2022-08-20T19:23:59.031Z,63.84
2022-08-20T19:26:31.345Z,64.16
2022-08-20T19:29:02.804Z,64.13
2022-08-20T19:31:34.119Z,65.50
2022-08-20T19:34:18.978Z,65.36
2022-08-20T19:36:55.447Z,67.65
2022-08-20T19:39:26.197Z,68.07
2022-08-20T19:42:02.364Z,67.73
2022-08-20T19:44:36.405Z,68.07
2022-08-20T19:47:05.929Z,67.26
2022-08-20T19:49:53.845Z,65.08
2022-08-20T19:52:37.116Z,63.53
2022-08-20T19:55:19.408Z,63.23
2022-08-20T19:57:52.380Z,63.61
2022-08-20T20:00:32.358Z,63.43
2022-08-20T20:03:10.121Z,62.76
2022-08-20T20:05:47.730Z,62.78
2022-08-20T20:08:15.697Z,62.98
2022-08-20T20:10:51.188Z,62.96
2022-08-20T20:13:22.762Z,63.32
2022-08-20T20:15:54.263Z,63.83
2022-08-20T20:18:23.340Z,63.63
2022-08-20T20:20:58.322Z,64.65
2022-08-20T20:23:45.789Z,64.57
2022-08-20T20:26:21.062Z,65.18
2022-08-20T20:28:51.082Z,65.93
2022-08-20T20:31:25.033Z,66.28
2022-08-20T20:33:56.858Z,67.47
2022-08-20T20:36:37.311Z,67.11
2022-08-20T20:39:12.546Z,67.47
2022-08-20T20:41:52.583Z,67.29
2022-08-20T20:44:22.434Z,66.07
2022-08-20T20:46:56.016Z,65.63
2022-08-20T20:49:26.352Z,63.98
2022-08-20T20:51:57.591Z,62.08
2022-08-20T20:54:32.110Z,62.11
2022-08-20T20:57:04.351Z,66.31
2022-08-20T20:59:35.154Z,71.39
2022-08-20T21:02:03.921Z,74.79
2022-08-20T21:04:32.460Z,76.04
2022-08-20T21:07:07.817Z,78.10
2022-08-20T21:09:38.514Z,79.14
2022-08-20T21:12:09.707Z,79.25
2022-08-20T21:14:38.313Z,83.06
2022-08-20T21:17:08.798Z,85.51
2022-08-20T21:19:44.898Z,84.02
2022-08-20T21:22:13.512Z,86.18
2022-08-20T21:24:41.524Z,88.74
2022-08-20T21:27:12.396Z,88.87
2022-08-20T21:29:41.449Z,90.06
2022-08-20T21:32:11.698Z,90.28
2022-08-20T21:34:41.170Z,90.13
2022-08-20T21:37:09.170Z,92.36
2022-08-20T21:39:37.329Z,92.43
2022-08-20T21:42:18.563Z,93.15
2022-08-20T21:44:57.152Z,93.86
2022-08-20T21:47:25.243Z,95.62
2022-08-20T21:49:53.254Z,97.58
2022-08-20T21:52:21.249Z,96.44
2022-08-20T21:54:49.290Z,97.05
2022-08-20T21:57:21.271Z,97.89
2022-08-20T21:59:50.682Z,97.35
2022-08-20T22:02:21.274Z,96.50
2022-08-20T22:04:53.941Z,95.24
2022-08-20T22:07:23.198Z,94.41
2022-08-20T22:09:51.174Z,94.24
2022-08-20T22:12:21.334Z,94.28
2022-08-20T22:14:49.483Z,95.30
2022-08-20T22:17:19.197Z,95.28
2022-08-20T22:19:47.344Z,95.61
2022-08-20T22:22:15.994Z,95.07
2022-08-20T22:24:45.582Z,96.05
2022-08-20T22:27:14.391Z,94.13
2022-08-20T22:29:42.429Z,94.18
2022-08-20T22:32:10.626Z,94.14
2022-08-20T22:34:40.174Z,94.98
2022-08-20T22:37:08.560Z,97.36
2022-08-20T22:39:36.611Z,97.60
2022-08-20T22:42:05.672Z,97.48
2022-08-20T22:44:33.930Z,97.10
2022-08-20T22:47:06.280Z,96.59
2022-08-20T22:49:37.259Z,94.73
2022-08-20T22:52:07.573Z,95.53
2022-08-20T22:54:36.784Z,98.27
2022-08-20T22:57:05.331Z,96.84
2022-08-20T22:59:38.792Z,96.83
2022-08-20T23:02:20.423Z,100.00
2022-08-20T23:04:48.455Z,100.00
2022-08-20T23:07:20.996Z,100.00
2022-08-20T23:09:49.035Z,100.00
2022-08-20T23:12:17.004Z,100.00
2022-08-20T23:14:45.031Z,100.00
2022-08-20T23:17:15.361Z,99.84
2022-08-20T23:19:43.828Z,100.00
2022-08-20T23:22:11.889Z,100.00
2022-08-20T23:24:41.651Z,100.00
2022-08-20T23:27:12.927Z,100.00
2022-08-20T23:29:40.960Z,100.00
2022-08-20T23:32:09.601Z,100.00
2022-08-20T23:34:37.632Z,100.00
2022-08-20T23:37:06.665Z,100.00
2022-08-20T23:39:35.168Z,100.00
2022-08-20T23:42:05.445Z,100.00
2022-08-20T23:44:33.494Z,100.00
2022-08-20T23:47:03.917Z,100.00
2022-08-20T23:49:33.199Z,100.00
2022-08-20T23:52:01.477Z,100.00
2022-08-20T23:54:29.906Z,100.00
2022-08-20T23:56:58.033Z,100.00
2022-08-20T23:59:27.693Z,100.00
